Time;durP1;ratioP1;P1;durP2;ratioP2;P2;SDS_P1;SDS_P2;PMS_P1;PMS_P2;Temp;Humidity;BMP_temperature;BMP_pressure;BME280_temperature;BME280_humidity;BME280_pressure;Samples;Min_cycle;Max_cycle;Signal;HPM_P1;HPM_P2
2021/01/19 00:00:32;;;;;;;17.80;15.17;;;;;;;;;;5052251;28;20209;-77
2021/01/19 00:03:17;;;;;;;18.10;15.77;;;;;;;;;;5053170;28;20576;-77
2021/01/19 00:06:02;;;;;;;20.40;14.23;;;;;;;;;;5052745;28;20611;-76
2021/01/19 00:08:46;;;;;;;14.73;12.53;;;;;;;;;;5052873;28;20694;-76
2021/01/19 00:11:31;;;;;;;18.43;13.27;;;;;;;;;;5040008;28;20715;-76
2021/01/19 00:14:16;;;;;;;16.83;12.93;;;;;;;;;;5051251;28;20228;-76
2021/01/19 00:17:00;;;;;;;18.77;13.00;;;;;;;;;;5030389;28;20293;-75
2021/01/19 00:19:45;;;;;;;13.67;9.87;;;;;;;;;;5030619;28;20203;-75
2021/01/19 00:22:29;;;;;;;18.10;11.33;;;;;;;;;;5047731;28;20221;-76
2021/01/19 00:25:14;;;;;;;13.47;9.53;;;;;;;;;;5051228;28;20259;-75
2021/01/19 00:27:59;;;;;;;14.67;9.17;;;;;;;;;;5051810;28;20206;-75
2021/01/19 00:30:44;;;;;;;13.80;8.17;;;;;;;;;;5052661;28;20248;-76
2021/01/19 00:33:28;;;;;;;12.93;8.07;;;;;;;;;;5052042;28;20296;-75
2021/01/19 00:36:13;;;;;;;15.43;7.90;;;;;;;;;;5051873;28;20253;-75
2021/01/19 00:38:57;;;;;;;13.10;8.57;;;;;;;;;;5031488;28;20443;-78
2021/01/19 00:41:42;;;;;;;16.30;8.17;;;;;;;;;;5048146;28;20283;-77
2021/01/19 00:44:27;;;;;;;15.30;7.90;;;;;;;;;;5052432;28;20388;-76
2021/01/19 00:47:11;;;;;;;11.83;6.60;;;;;;;;;;5051513;28;20268;-76
2021/01/19 00:49:56;;;;;;;17.80;7.47;;;;;;;;;;5051191;28;20221;-76
2021/01/19 00:52:40;;;;;;;11.30;6.53;;;;;;;;;;5047469;28;20214;-76
2021/01/19 00:55:25;;;;;;;13.20;6.70;;;;;;;;;;5051878;28;20305;-76
2021/01/19 00:58:09;;;;;;;10.30;6.00;;;;;;;;;;5051707;28;20249;-76
2021/01/19 01:00:55;;;;;;;11.80;6.03;;;;;;;;;;5052079;28;20238;-77
2021/01/19 01:03:39;;;;;;;13.03;6.00;;;;;;;;;;5052239;28;20707;-76
2021/01/19 01:06:24;;;;;;;10.10;5.97;;;;;;;;;;5051622;28;20197;-77
2021/01/19 01:09:08;;;;;;;12.65;6.82;;;;;;;;;;5050926;28;20800;-76
2021/01/19 01:11:52;;;;;;;16.20;7.37;;;;;;;;;;5051884;28;20562;-76
2021/01/19 01:14:37;;;;;;;10.37;5.80;;;;;;;;;;5052223;28;20627;-76
2021/01/19 01:17:22;;;;;;;13.00;5.80;;;;;;;;;;5051465;28;20260;-76
2021/01/19 01:20:07;;;;;;;10.63;5.60;;;;;;;;;;5051799;28;20206;-77
2021/01/19 01:22:53;;;;;;;12.03;5.50;;;;;;;;;;5051593;28;20201;-76
2021/01/19 01:25:37;;;;;;;9.47;5.50;;;;;;;;;;5051248;28;20267;-76
2021/01/19 01:28:22;;;;;;;10.30;5.80;;;;;;;;;;5051452;28;20254;-76
2021/01/19 01:31:07;;;;;;;12.60;5.57;;;;;;;;;;5051503;28;20302;-77
2021/01/19 01:33:52;;;;;;;11.57;5.43;;;;;;;;;;5051120;28;20336;-76
2021/01/19 01:36:38;;;;;;;10.83;5.40;;;;;;;;;;5030987;28;20212;-76
2021/01/19 01:39:23;;;;;;;11.03;5.03;;;;;;;;;;5031533;28;20257;-77
2021/01/19 01:42:13;;;;;;;8.37;4.83;;;;;;;;;;5031480;28;20206;-77
2021/01/19 01:44:58;;;;;;;11.00;4.70;;;;;;;;;;5031388;28;20271;-76
2021/01/19 01:47:42;;;;;;;13.10;5.00;;;;;;;;;;5030878;28;20206;-75
2021/01/19 01:50:28;;;;;;;13.47;5.00;;;;;;;;;;5031558;28;20797;-76
2021/01/19 01:53:13;;;;;;;12.40;4.87;;;;;;;;;;5031204;28;20302;-76
2021/01/19 01:55:57;;;;;;;12.07;5.13;;;;;;;;;;5030532;28;20203;-77
2021/01/19 01:58:42;;;;;;;14.17;5.10;;;;;;;;;;5031263;28;20202;-77
2021/01/19 02:01:26;;;;;;;11.97;5.40;;;;;;;;;;5031219;28;20256;-77
2021/01/19 02:04:10;;;;;;;10.50;4.93;;;;;;;;;;5032820;28;20229;-76
2021/01/19 02:06:56;;;;;;;12.70;5.23;;;;;;;;;;5050695;28;20248;-76
2021/01/19 02:09:42;;;;;;;11.40;5.37;;;;;;;;;;5050979;28;20245;-77
2021/01/19 02:12:29;;;;;;;8.47;4.40;;;;;;;;;;5050905;28;20339;-76
2021/01/19 02:15:15;;;;;;;10.63;4.90;;;;;;;;;;5050963;28;20569;-76
2021/01/19 02:18:05;;;;;;;9.83;4.33;;;;;;;;;;5050115;28;20198;-75
2021/01/19 02:21:08;;;;;;;11.33;4.70;;;;;;;;;;5050751;28;20709;-76
2021/01/19 02:23:59;;;;;;;10.00;4.30;;;;;;;;;;5050785;28;20272;-77
2021/01/19 02:26:53;;;;;;;11.93;4.60;;;;;;;;;;5050406;28;20672;-76
2021/01/19 02:29:51;;;;;;;9.47;4.07;;;;;;;;;;5050602;28;20273;-77
2021/01/19 02:32:41;;;;;;;9.93;4.50;;;;;;;;;;5050860;28;20326;-76
2021/01/19 02:35:27;;;;;;;8.30;3.90;;;;;;;;;;5050669;28;20566;-76
2021/01/19 02:38:19;;;;;;;11.70;4.67;;;;;;;;;;5050298;28;20235;-77
2021/01/19 02:41:04;;;;;;;9.53;4.13;;;;;;;;;;5050897;28;20262;-76
2021/01/19 02:43:56;;;;;;;9.80;4.10;;;;;;;;;;5050636;28;20284;-76
2021/01/19 02:46:40;;;;;;;9.75;4.35;;;;;;;;;;5049051;28;20757;-76
2021/01/19 02:49:26;;;;;;;11.33;4.37;;;;;;;;;;5049806;28;20321;-77
2021/01/19 02:52:11;;;;;;;13.30;4.63;;;;;;;;;;5050564;28;20201;-76
2021/01/19 02:54:56;;;;;;;10.93;4.13;;;;;;;;;;5050485;28;20249;-76
2021/01/19 02:57:48;;;;;;;8.87;3.70;;;;;;;;;;5050218;28;20622;-76
2021/01/19 03:00:40;;;;;;;8.80;4.10;;;;;;;;;;5049790;28;20355;-76
2021/01/19 03:03:24;;;;;;;11.30;4.20;;;;;;;;;;5050356;28;20229;-77
2021/01/19 03:06:12;;;;;;;7.50;3.80;;;;;;;;;;5050165;28;20215;-77
2021/01/19 03:08:57;;;;;;;9.57;4.37;;;;;;;;;;5050780;28;20275;-77
2021/01/19 03:11:42;;;;;;;9.97;4.57;;;;;;;;;;5050603;28;20202;-76
2021/01/19 03:14:27;;;;;;;8.77;4.10;;;;;;;;;;5071860;22;20287;-76
2021/01/19 03:17:12;;;;;;;9.17;4.50;;;;;;;;;;5073686;28;20262;-75
2021/01/19 03:19:56;;;;;;;8.97;4.50;;;;;;;;;;5073965;28;20284;-75
2021/01/19 03:22:42;;;;;;;12.63;4.83;;;;;;;;;;5073837;28;20201;-75
2021/01/19 03:25:26;;;;;;;10.87;4.60;;;;;;;;;;5073890;28;20204;-75
2021/01/19 03:28:10;;;;;;;12.93;5.33;;;;;;;;;;5073298;28;20303;-76
2021/01/19 03:30:55;;;;;;;11.67;4.90;;;;;;;;;;5073854;28;20204;-75
2021/01/19 03:33:39;;;;;;;11.93;5.00;;;;;;;;;;5073661;28;20571;-75
2021/01/19 03:36:24;;;;;;;11.73;5.90;;;;;;;;;;5073299;28;20252;-75
2021/01/19 03:39:10;;;;;;;12.27;6.10;;;;;;;;;;5072668;28;20216;-75
2021/01/19 03:41:54;;;;;;;11.63;5.87;;;;;;;;;;5073564;28;20201;-75
2021/01/19 03:44:38;;;;;;;13.80;6.00;;;;;;;;;;5073469;28;20220;-75
2021/01/19 03:47:23;;;;;;;12.90;5.80;;;;;;;;;;5072411;28;20618;-75
2021/01/19 03:50:08;;;;;;;13.27;6.40;;;;;;;;;;5073140;28;20259;-75
2021/01/19 03:52:53;;;;;;;15.57;7.93;;;;;;;;;;5072444;28;20949;-75
2021/01/19 03:55:38;;;;;;;13.60;6.83;;;;;;;;;;5073377;28;20204;-75
2021/01/19 03:58:22;;;;;;;12.33;7.30;;;;;;;;;;5073356;28;20574;-75
2021/01/19 04:01:07;;;;;;;15.57;7.93;;;;;;;;;;5073315;28;20810;-75
2021/01/19 04:03:51;;;;;;;15.80;7.77;;;;;;;;;;5073291;28;20684;-75
2021/01/19 04:06:36;;;;;;;14.07;7.50;;;;;;;;;;5072695;28;20564;-75
2021/01/19 04:09:20;;;;;;;17.20;7.50;;;;;;;;;;5073055;28;20232;-75
2021/01/19 04:12:06;;;;;;;16.37;7.97;;;;;;;;;;5073367;28;20217;-75
2021/01/19 04:14:50;;;;;;;15.37;8.03;;;;;;;;;;5072367;28;20726;-75
2021/01/19 04:17:35;;;;;;;14.47;8.00;;;;;;;;;;5072048;28;20232;-75
2021/01/19 04:20:19;;;;;;;11.60;7.73;;;;;;;;;;5072650;28;20204;-74
2021/01/19 04:23:04;;;;;;;15.60;10.57;;;;;;;;;;5071169;28;20444;-75
2021/01/19 04:25:48;;;;;;;13.13;8.60;;;;;;;;;;5072295;28;20209;-75
2021/01/19 04:28:34;;;;;;;14.37;7.90;;;;;;;;;;5072944;28;20280;-75
2021/01/19 04:31:19;;;;;;;11.27;7.50;;;;;;;;;;5072634;28;20267;-75
2021/01/19 04:34:03;;;;;;;12.73;7.27;;;;;;;;;;5072566;28;20263;-75
2021/01/19 04:36:48;;;;;;;8.60;7.43;;;;;;;;;;5072069;28;20305;-74
2021/01/19 04:39:32;;;;;;;10.63;7.30;;;;;;;;;;5064661;28;20326;-75
2021/01/19 04:42:18;;;;;;;11.60;6.57;;;;;;;;;;5072357;28;20240;-75
2021/01/19 04:45:05;;;;;;;10.07;7.20;;;;;;;;;;5072495;28;20204;-74
2021/01/19 04:47:50;;;;;;;11.87;7.60;;;;;;;;;;5071807;28;20201;-74
2021/01/19 04:50:36;;;;;;;8.93;7.37;;;;;;;;;;5071895;28;20224;-75
2021/01/19 04:53:20;;;;;;;14.53;7.77;;;;;;;;;;5071369;28;20275;-74
2021/01/19 04:56:07;;;;;;;9.77;6.80;;;;;;;;;;5071653;28;20687;-74
2021/01/19 04:58:54;;;;;;;11.77;7.00;;;;;;;;;;5072058;28;20309;-74
2021/01/19 05:01:40;;;;;;;10.20;7.07;;;;;;;;;;5072107;28;20347;-73
2021/01/19 05:04:44;;;;;;;8.83;6.67;;;;;;;;;;5072311;28;20224;-73
2021/01/19 05:07:29;;;;;;;8.10;5.87;;;;;;;;;;5070828;28;20212;-73
2021/01/19 05:10:14;;;;;;;9.70;6.50;;;;;;;;;;5072021;28;20244;-73
2021/01/19 05:13:01;;;;;;;9.30;6.80;;;;;;;;;;5068801;28;20219;-72
2021/01/19 05:15:47;;;;;;;7.93;6.43;;;;;;;;;;5071789;28;20616;-72
2021/01/19 05:18:32;;;;;;;8.70;6.53;;;;;;;;;;5065636;28;20205;-72
2021/01/19 05:21:17;;;;;;;11.83;6.90;;;;;;;;;;5051581;28;20201;-72
2021/01/19 05:24:01;;;;;;;7.57;6.03;;;;;;;;;;5067805;28;20309;-72
2021/01/19 05:26:46;;;;;;;6.57;5.87;;;;;;;;;;5071050;28;20200;-72
2021/01/19 05:29:30;;;;;;;8.13;6.40;;;;;;;;;;5065153;28;20224;-71
2021/01/19 05:32:15;;;;;;;8.67;6.80;;;;;;;;;;5065532;28;20254;-71
2021/01/19 05:35:10;;;;;;;7.50;6.73;;;;;;;;;;5061588;28;20224;-72
2021/01/19 05:37:56;;;;;;;8.90;5.73;;;;;;;;;;5070602;28;20196;-72
2021/01/19 05:40:44;;;;;;;6.70;5.90;;;;;;;;;;5060765;28;20213;-72
2021/01/19 05:43:28;;;;;;;7.17;6.07;;;;;;;;;;5063261;28;20314;-72
2021/01/19 05:46:13;;;;;;;7.27;5.93;;;;;;;;;;5070932;28;20579;-72
2021/01/19 05:48:59;;;;;;;6.97;5.77;;;;;;;;;;5071342;28;20220;-71
2021/01/19 05:51:45;;;;;;;8.60;6.07;;;;;;;;;;5071220;28;20710;-72
2021/01/19 05:54:30;;;;;;;8.30;5.77;;;;;;;;;;5070971;28;20631;-72
2021/01/19 05:57:16;;;;;;;6.53;5.87;;;;;;;;;;5070728;28;20660;-71
2021/01/19 06:00:01;;;;;;;9.13;6.55;;;;;;;;;;5070717;28;20425;-72
2021/01/19 06:02:45;;;;;;;6.57;5.70;;;;;;;;;;5069620;28;20278;-72
2021/01/19 06:05:31;;;;;;;5.87;5.27;;;;;;;;;;5071108;28;20246;-71
2021/01/19 06:08:23;;;;;;;8.40;6.10;;;;;;;;;;5071236;28;20220;-71
2021/01/19 06:11:08;;;;;;;8.10;5.20;;;;;;;;;;5071357;28;20204;-72
2021/01/19 06:13:52;;;;;;;5.57;5.07;;;;;;;;;;5070764;28;20753;-71
2021/01/19 06:16:36;;;;;;;7.30;5.20;;;;;;;;;;5070519;28;20266;-72
2021/01/19 06:19:25;;;;;;;5.53;5.03;;;;;;;;;;5070860;28;20239;-72
2021/01/19 06:22:11;;;;;;;5.97;4.87;;;;;;;;;;5071405;28;20559;-71
2021/01/19 06:24:56;;;;;;;7.13;5.37;;;;;;;;;;5071013;28;20237;-72
2021/01/19 06:27:41;;;;;;;6.20;5.60;;;;;;;;;;5070467;28;20205;-72
2021/01/19 06:30:26;;;;;;;5.20;4.80;;;;;;;;;;5070768;28;20584;-72
2021/01/19 06:33:11;;;;;;;5.60;5.10;;;;;;;;;;5070791;28;20279;-72
2021/01/19 06:35:55;;;;;;;5.40;4.40;;;;;;;;;;5070028;28;20212;-72
2021/01/19 06:38:43;;;;;;;5.27;4.93;;;;;;;;;;5070819;28;20667;-72
2021/01/19 06:41:33;;;;;;;5.77;5.17;;;;;;;;;;5070716;28;20200;-72
2021/01/19 06:44:19;;;;;;;6.03;5.40;;;;;;;;;;5069516;28;20221;-72
2021/01/19 06:47:04;;;;;;;7.13;4.73;;;;;;;;;;5069476;28;20209;-71
2021/01/19 06:49:50;;;;;;;5.70;5.13;;;;;;;;;;5074382;28;20270;-72
2021/01/19 06:52:39;;;;;;;5.50;5.00;;;;;;;;;;5074606;28;20263;-72
2021/01/19 06:55:24;;;;;;;5.47;4.97;;;;;;;;;;5074379;28;20201;-71
2021/01/19 06:58:17;;;;;;;4.90;4.40;;;;;;;;;;5072643;28;20315;-72
2021/01/19 07:01:08;;;;;;;4.83;4.17;;;;;;;;;;5072117;28;20212;-72
2021/01/19 07:04:02;;;;;;;6.73;6.13;;;;;;;;;;5074208;28;20286;-72
2021/01/19 07:07:04;;;;;;;6.80;6.15;;;;;;;;;;5072617;28;20590;-72
2021/01/19 07:10:03;;;;;;;5.37;4.87;;;;;;;;;;5072289;28;20597;-72
2021/01/19 07:12:56;;;;;;;4.90;4.50;;;;;;;;;;5071006;28;20631;-72
2021/01/19 07:16:02;;;;;;;6.57;4.73;;;;;;;;;;5074064;28;20204;-73
2021/01/19 07:19:00;;;;;;;4.70;4.30;;;;;;;;;;5073029;28;20240;-72
2021/01/19 07:21:58;;;;;;;4.00;3.70;;;;;;;;;;5069085;28;20204;-71
2021/01/19 07:24:46;;;;;;;4.77;4.27;;;;;;;;;;5074092;28;20667;-72
2021/01/19 07:27:32;;;;;;;3.90;3.60;;;;;;;;;;5073450;28;20196;-71
2021/01/19 07:30:16;;;;;;;5.23;4.40;;;;;;;;;;5073541;28;20543;-71
2021/01/19 07:33:02;;;;;;;4.93;4.47;;;;;;;;;;5073665;28;20579;-71
2021/01/19 07:35:47;;;;;;;4.40;4.10;;;;;;;;;;5073613;28;20690;-71
2021/01/19 07:38:31;;;;;;;5.47;4.93;;;;;;;;;;5073457;28;20390;-72
2021/01/19 07:41:25;;;;;;;6.03;4.87;;;;;;;;;;5074042;28;20200;-73
2021/01/19 07:44:18;;;;;;;6.23;4.33;;;;;;;;;;5073513;28;20773;-73
2021/01/19 07:47:10;;;;;;;5.30;4.77;;;;;;;;;;5073091;28;20722;-73
2021/01/19 07:50:01;;;;;;;4.70;4.23;;;;;;;;;;5073432;28;20429;-73
2021/01/19 07:52:46;;;;;;;4.57;4.17;;;;;;;;;;5073317;28;20218;-73
2021/01/19 07:55:40;;;;;;;5.40;4.50;;;;;;;;;;5058212;28;20198;-73
2021/01/19 07:58:24;;;;;;;4.90;4.50;;;;;;;;;;5052960;28;20193;-72
2021/01/19 08:01:09;;;;;;;4.50;4.10;;;;;;;;;;5053284;28;20675;-73
2021/01/19 08:03:54;;;;;;;4.37;4.07;;;;;;;;;;5052959;28;20218;-72
2021/01/19 08:06:39;;;;;;;4.83;4.43;;;;;;;;;;5052662;28;20229;-73
2021/01/19 08:09:24;;;;;;;5.10;4.67;;;;;;;;;;5052973;28;20221;-73
2021/01/19 08:12:11;;;;;;;5.20;4.67;;;;;;;;;;5069872;28;20204;-72
2021/01/19 08:15:03;;;;;;;4.67;4.27;;;;;;;;;;5061665;28;20237;-73
2021/01/19 08:17:51;;;;;;;4.30;3.70;;;;;;;;;;5072739;28;20206;-73
2021/01/19 08:20:36;;;;;;;4.20;3.80;;;;;;;;;;5062393;28;20209;-73
2021/01/19 08:23:24;;;;;;;6.03;4.27;;;;;;;;;;5062313;28;20229;-72
2021/01/19 08:26:09;;;;;;;4.50;4.10;;;;;;;;;;5072511;28;20310;-72
2021/01/19 08:28:53;;;;;;;4.67;4.23;;;;;;;;;;5052587;28;20252;-72
2021/01/19 08:31:38;;;;;;;4.47;4.07;;;;;;;;;;5052701;28;20193;-72
2021/01/19 08:34:23;;;;;;;4.87;4.30;;;;;;;;;;5052720;28;20795;-72
2021/01/19 08:37:14;;;;;;;5.13;4.63;;;;;;;;;;5069398;28;20205;-73
2021/01/19 08:40:00;;;;;;;5.60;4.60;;;;;;;;;;5071490;28;20288;-73
2021/01/19 08:42:44;;;;;;;5.53;4.23;;;;;;;;;;5053320;28;20583;-73
2021/01/19 08:45:30;;;;;;;5.20;4.80;;;;;;;;;;5060325;28;20205;-72
2021/01/19 08:48:14;;;;;;;4.90;4.50;;;;;;;;;;5071733;28;20248;-72
2021/01/19 08:50:59;;;;;;;5.97;4.70;;;;;;;;;;5071601;28;20642;-73
2021/01/19 08:53:43;;;;;;;4.80;4.40;;;;;;;;;;5072085;28;20731;-72
2021/01/19 08:56:29;;;;;;;4.70;4.30;;;;;;;;;;5070943;28;20569;-72
2021/01/19 08:59:13;;;;;;;5.20;4.73;;;;;;;;;;5066082;28;20292;-73
2021/01/19 09:01:57;;;;;;;5.80;4.73;;;;;;;;;;5071828;28;20351;-72
2021/01/19 09:04:42;;;;;;;4.87;4.37;;;;;;;;;;5071968;28;20583;-73
2021/01/19 09:07:28;;;;;;;5.10;4.60;;;;;;;;;;5068661;28;20626;-74
2021/01/19 09:10:18;;;;;;;5.00;4.60;;;;;;;;;;5063451;28;20232;-72
2021/01/19 09:13:04;;;;;;;5.13;4.73;;;;;;;;;;5070327;28;20216;-73
2021/01/19 09:15:48;;;;;;;6.82;6.22;;;;;;;;;;5070801;28;20500;-73
2021/01/19 09:18:33;;;;;;;5.13;4.73;;;;;;;;;;5071896;28;20283;-71
2021/01/19 09:21:18;;;;;;;4.97;4.50;;;;;;;;;;5071601;28;20686;-72
2021/01/19 09:24:03;;;;;;;5.03;4.50;;;;;;;;;;5071384;28;20268;-72
2021/01/19 09:26:57;;;;;;;5.23;4.73;;;;;;;;;;5070957;28;20750;-71
2021/01/19 09:29:44;;;;;;;5.57;4.80;;;;;;;;;;5071365;28;20252;-69
2021/01/19 09:32:29;;;;;;;5.57;4.87;;;;;;;;;;5069750;28;20245;-69
2021/01/19 09:35:15;;;;;;;5.37;4.87;;;;;;;;;;5071010;28;20296;-69
2021/01/19 09:37:59;;;;;;;5.73;5.20;;;;;;;;;;5068646;28;20225;-70
2021/01/19 09:40:44;;;;;;;5.73;5.20;;;;;;;;;;5071343;28;20244;-72
2021/01/19 09:43:28;;;;;;;5.93;5.50;;;;;;;;;;5070872;28;20255;-74
2021/01/19 09:46:15;;;;;;;7.63;5.70;;;;;;;;;;5070760;28;20223;-75
2021/01/19 09:49:00;;;;;;;6.07;5.57;;;;;;;;;;5071296;28;20715;-73
2021/01/19 09:51:44;;;;;;;6.87;6.33;;;;;;;;;;5070013;28;20199;-72
2021/01/19 09:54:28;;;;;;;7.27;6.67;;;;;;;;;;5071106;28;20222;-73
2021/01/19 09:57:13;;;;;;;7.50;6.90;;;;;;;;;;5070393;28;20222;-75
2021/01/19 09:59:58;;;;;;;9.77;7.00;;;;;;;;;;5071003;28;20249;-72
2021/01/19 10:02:43;;;;;;;7.83;7.13;;;;;;;;;;5070771;28;20234;-72
2021/01/19 10:05:27;;;;;;;8.17;7.43;;;;;;;;;;5070602;28;20333;-73
2021/01/19 10:08:12;;;;;;;8.27;7.67;;;;;;;;;;5070689;28;20685;-73
2021/01/19 10:10:56;;;;;;;9.60;8.80;;;;;;;;;;5070948;28;20235;-74
2021/01/19 10:13:41;;;;;;;9.80;9.00;;;;;;;;;;5069203;28;20719;-73
2021/01/19 10:16:26;;;;;;;8.90;8.20;;;;;;;;;;5070614;28;20701;-72
2021/01/19 10:19:18;;;;;;;9.53;8.63;;;;;;;;;;5070593;28;20270;-72
2021/01/19 10:22:03;;;;;;;9.47;8.57;;;;;;;;;;5072498;28;20231;-72
2021/01/19 10:24:48;;;;;;;7.97;7.30;;;;;;;;;;5075021;28;20690;-72
2021/01/19 10:27:37;;;;;;;7.60;6.97;;;;;;;;;;5074448;28;20584;-72
2021/01/19 10:30:26;;;;;;;8.23;7.63;;;;;;;;;;5074816;28;20276;-72
2021/01/19 10:33:25;;;;;;;7.47;6.87;;;;;;;;;;5074676;28;20636;-76
2021/01/19 10:36:10;;;;;;;7.00;6.40;;;;;;;;;;5074235;28;20204;-73
2021/01/19 10:39:00;;;;;;;6.53;6.03;;;;;;;;;;5074572;28;20217;-73
2021/01/19 10:41:45;;;;;;;6.43;5.90;;;;;;;;;;5074689;28;20216;-74
2021/01/19 10:44:30;;;;;;;5.50;5.10;;;;;;;;;;5074594;28;20204;-74
2021/01/19 10:47:15;;;;;;;5.90;5.40;;;;;;;;;;5073839;28;20203;-72
2021/01/19 10:50:08;;;;;;;5.93;5.33;;;;;;;;;;5054116;28;20230;-76
2021/01/19 10:52:54;;;;;;;7.53;6.97;;;;;;;;;;5053409;28;20764;-74
2021/01/19 10:55:39;;;;;;;6.40;5.90;;;;;;;;;;5054299;28;20425;-75
2021/01/19 10:58:24;;;;;;;6.27;5.70;;;;;;;;;;5054285;28;20216;-73
2021/01/19 11:01:08;;;;;;;6.13;5.63;;;;;;;;;;5054504;28;20212;-72
2021/01/19 11:03:53;;;;;;;5.70;5.30;;;;;;;;;;5054332;28;20747;-73
2021/01/19 11:06:38;;;;;;;5.70;5.30;;;;;;;;;;5053851;28;20690;-75
2021/01/19 11:09:24;;;;;;;5.60;5.10;;;;;;;;;;5054279;28;20220;-75
2021/01/19 11:12:08;;;;;;;5.50;5.10;;;;;;;;;;5053754;28;20808;-74
2021/01/19 11:14:52;;;;;;;6.07;5.57;;;;;;;;;;5054151;28;20225;-75
2021/01/19 11:17:37;;;;;;;6.23;5.67;;;;;;;;;;5072697;28;21553;-75
2021/01/19 11:20:21;;;;;;;6.00;5.30;;;;;;;;;;5073972;28;20250;-72
2021/01/19 11:23:06;;;;;;;6.17;5.67;;;;;;;;;;5073810;28;20293;-77
2021/01/19 11:25:51;;;;;;;6.50;5.90;;;;;;;;;;5073645;28;20265;-76
2021/01/19 11:28:35;;;;;;;7.53;6.93;;;;;;;;;;5069135;28;20212;-72
2021/01/19 11:31:21;;;;;;;7.97;7.27;;;;;;;;;;5053594;28;20258;-72
2021/01/19 11:34:06;;;;;;;8.20;7.60;;;;;;;;;;5064558;28;20598;-72
2021/01/19 11:36:51;;;;;;;8.60;7.80;;;;;;;;;;5073099;28;20211;-72
2021/01/19 11:39:35;;;;;;;8.37;7.57;;;;;;;;;;5073815;28;20220;-72
2021/01/19 11:42:21;;;;;;;8.33;7.53;;;;;;;;;;5071808;28;20266;-72
2021/01/19 11:45:06;;;;;;;8.90;7.90;;;;;;;;;;5067652;28;20679;-76
2021/01/19 11:47:50;;;;;;;8.53;7.83;;;;;;;;;;5052958;28;20219;-79
2021/01/19 11:50:34;;;;;;;9.33;8.43;;;;;;;;;;5053333;28;20255;-79
2021/01/19 11:53:19;;;;;;;9.80;8.90;;;;;;;;;;5069497;28;20236;-76
2021/01/19 11:56:03;;;;;;;9.87;8.20;;;;;;;;;;5073000;28;20311;-79
2021/01/19 11:58:49;;;;;;;9.67;8.77;;;;;;;;;;5073282;28;20227;-74
2021/01/19 12:01:33;;;;;;;9.90;9.00;;;;;;;;;;5073372;28;20205;-74
2021/01/19 12:04:18;;;;;;;11.37;9.77;;;;;;;;;;5073358;28;20287;-73
2021/01/19 12:07:03;;;;;;;10.23;9.27;;;;;;;;;;5072883;28;20208;-78
2021/01/19 12:09:48;;;;;;;9.23;8.33;;;;;;;;;;5070221;28;20259;-74
2021/01/19 12:12:32;;;;;;;9.20;8.20;;;;;;;;;;5071137;28;20658;-77
2021/01/19 12:15:20;;;;;;;9.87;8.60;;;;;;;;;;5072550;28;20212;-77
2021/01/19 12:18:04;;;;;;;11.10;10.00;;;;;;;;;;5072675;28;20208;-76
2021/01/19 12:20:49;;;;;;;11.57;10.33;;;;;;;;;;5071809;28;20565;-78
2021/01/19 12:23:33;;;;;;;13.43;11.03;;;;;;;;;;5072756;28;20246;-74
2021/01/19 12:26:18;;;;;;;15.17;11.50;;;;;;;;;;5072128;28;20593;-76
2021/01/19 12:29:02;;;;;;;15.27;13.40;;;;;;;;;;5071278;28;20491;-78
2021/01/19 12:31:48;;;;;;;13.80;12.40;;;;;;;;;;5070734;28;20223;-74
2021/01/19 12:34:32;;;;;;;14.57;11.90;;;;;;;;;;5071417;28;20630;-78
2021/01/19 12:37:17;;;;;;;13.53;11.43;;;;;;;;;;5072050;28;20615;-73
2021/01/19 12:40:03;;;;;;;17.07;12.63;;;;;;;;;;5072020;28;20565;-69
2021/01/19 12:42:48;;;;;;;12.93;10.50;;;;;;;;;;5072235;28;20724;-71
2021/01/19 12:45:32;;;;;;;12.33;10.40;;;;;;;;;;5069589;28;20411;-71
2021/01/19 12:48:17;;;;;;;13.13;9.80;;;;;;;;;;5071649;28;20205;-74
2021/01/19 12:51:02;;;;;;;16.87;9.87;;;;;;;;;;5070791;28;20247;-77
2021/01/19 12:53:47;;;;;;;12.13;9.93;;;;;;;;;;5071647;28;20339;-75
2021/01/19 12:56:31;;;;;;;12.33;9.97;;;;;;;;;;5071479;28;20212;-74
2021/01/19 12:59:15;;;;;;;14.70;9.57;;;;;;;;;;5072482;28;20551;-72
2021/01/19 13:02:01;;;;;;;11.97;8.83;;;;;;;;;;5072211;28;20627;-75
2021/01/19 13:04:46;;;;;;;11.33;7.57;;;;;;;;;;5071947;28;20208;-75
2021/01/19 13:07:31;;;;;;;10.50;6.63;;;;;;;;;;5051161;28;20280;-75
2021/01/19 13:10:15;;;;;;;7.87;5.90;;;;;;;;;;5053317;28;20742;-76
2021/01/19 13:13:00;;;;;;;8.87;5.70;;;;;;;;;;5071665;28;20227;-73
2021/01/19 13:15:44;;;;;;;9.03;4.47;;;;;;;;;;5071303;28;20286;-76
2021/01/19 13:18:29;;;;;;;7.90;4.50;;;;;;;;;;5070188;28;20729;-78
2021/01/19 13:21:14;;;;;;;7.97;3.40;;;;;;;;;;5071609;28;20251;-77
2021/01/19 13:23:59;;;;;;;8.23;3.97;;;;;;;;;;5071429;28;20567;-79
2021/01/19 13:26:43;;;;;;;8.67;4.07;;;;;;;;;;5071067;28;20691;-77
2021/01/19 13:29:28;;;;;;;4.83;3.80;;;;;;;;;;5071250;28;20219;-77
2021/01/19 13:32:12;;;;;;;5.90;3.57;;;;;;;;;;5070011;28;20302;-73
2021/01/19 13:34:57;;;;;;;6.07;3.53;;;;;;;;;;5071009;28;20335;-75
2021/01/19 13:37:42;;;;;;;6.53;3.73;;;;;;;;;;5070756;28;20670;-75
2021/01/19 13:40:27;;;;;;;8.83;4.10;;;;;;;;;;5070384;28;20567;-79
2021/01/19 13:43:11;;;;;;;5.10;4.57;;;;;;;;;;5071273;28;20228;-75
2021/01/19 13:45:56;;;;;;;7.40;4.73;;;;;;;;;;5070540;28;20243;-79
2021/01/19 13:48:40;;;;;;;6.50;5.20;;;;;;;;;;5071727;28;20259;-79
2021/01/19 13:51:25;;;;;;;6.13;4.67;;;;;;;;;;5070037;28;20762;-75
2021/01/19 13:54:10;;;;;;;7.47;5.20;;;;;;;;;;5062590;28;20720;-72
2021/01/19 13:56:56;;;;;;;6.07;5.03;;;;;;;;;;5050272;28;20205;-76
2021/01/19 13:59:40;;;;;;;6.50;5.00;;;;;;;;;;5051323;28;20205;-76
2021/01/19 14:02:25;;;;;;;7.07;4.33;;;;;;;;;;5050612;28;20224;-76
2021/01/19 14:05:09;;;;;;;4.63;3.37;;;;;;;;;;5051136;28;20820;-77
2021/01/19 14:07:54;;;;;;;5.33;2.80;;;;;;;;;;5050461;28;20201;-74
2021/01/19 14:10:39;;;;;;;4.32;2.90;;;;;;;;;;5059640;28;20442;-77
2021/01/19 14:13:24;;;;;;;5.27;2.67;;;;;;;;;;5070911;28;20250;-82
2021/01/19 14:16:09;;;;;;;4.43;2.33;;;;;;;;;;5070386;28;20220;-77
2021/01/19 14:18:53;;;;;;;4.17;2.13;;;;;;;;;;5070798;28;20200;-76
2021/01/19 14:21:38;;;;;;;4.20;2.63;;;;;;;;;;5070614;28;20269;-78
2021/01/19 14:24:22;;;;;;;5.37;2.80;;;;;;;;;;5070884;28;20335;-78
2021/01/19 14:27:07;;;;;;;4.07;2.60;;;;;;;;;;5070438;28;20208;-78
2021/01/19 14:29:52;;;;;;;5.57;2.50;;;;;;;;;;5070696;28;20229;-75
2021/01/19 14:32:37;;;;;;;6.83;2.80;;;;;;;;;;5069762;28;20235;-78
2021/01/19 14:35:21;;;;;;;5.27;2.37;;;;;;;;;;5070740;28;20199;-78
2021/01/19 14:38:05;;;;;;;4.43;2.03;;;;;;;;;;5068867;28;20205;-75
2021/01/19 14:40:50;;;;;;;7.60;4.77;;;;;;;;;;5070804;28;20205;-74
2021/01/19 14:43:36;;;;;;;6.77;4.77;;;;;;;;;;5070691;28;20255;-76
2021/01/19 14:46:21;;;;;;;4.63;4.10;;;;;;;;;;5053730;28;20204;-80
2021/01/19 14:49:06;;;;;;;6.70;4.47;;;;;;;;;;5055755;28;20205;-78
2021/01/19 14:51:50;;;;;;;7.47;3.57;;;;;;;;;;5054996;28;20227;-79
2021/01/19 14:54:35;;;;;;;4.03;2.67;;;;;;;;;;5070467;28;20270;-75
2021/01/19 14:57:20;;;;;;;4.97;2.40;;;;;;;;;;5070225;28;20674;-76
2021/01/19 15:00:06;;;;;;;1.90;1.60;;;;;;;;;;5070568;28;20208;-74
2021/01/19 15:02:53;;;;;;;2.20;1.90;;;;;;;;;;5070619;28;20913;-76
2021/01/19 15:05:38;;;;;;;2.60;1.70;;;;;;;;;;5070379;28;20200;-75
2021/01/19 15:08:22;;;;;;;2.23;1.80;;;;;;;;;;5071379;28;20212;-77
2021/01/19 15:11:13;;;;;;;3.47;1.90;;;;;;;;;;5071722;28;20306;-76
2021/01/19 15:13:57;;;;;;;3.57;2.30;;;;;;;;;;5073044;28;20411;-76
2021/01/19 15:16:43;;;;;;;4.00;2.27;;;;;;;;;;5073471;28;20285;-76
2021/01/19 15:19:28;;;;;;;3.03;2.70;;;;;;;;;;5072840;28;20287;-77
2021/01/19 15:22:12;;;;;;;6.00;3.47;;;;;;;;;;5073931;28;20219;-78
2021/01/19 15:24:57;;;;;;;5.07;3.80;;;;;;;;;;5073818;28;20205;-76
2021/01/19 15:27:41;;;;;;;4.07;3.73;;;;;;;;;;5073454;28;20215;-75
2021/01/19 15:30:26;;;;;;;4.60;4.20;;;;;;;;;;5072330;28;20347;-82
2021/01/19 15:33:13;;;;;;;4.67;4.23;;;;;;;;;;5073633;28;20197;-77
2021/01/19 15:35:57;;;;;;;3.57;3.33;;;;;;;;;;5073003;28;20200;-79
2021/01/19 15:38:42;;;;;;;3.53;3.23;;;;;;;;;;5073837;28;20338;-77
2021/01/19 15:41:26;;;;;;;4.03;3.73;;;;;;;;;;5071547;28;21649;-77
2021/01/19 15:44:11;;;;;;;4.27;3.90;;;;;;;;;;5074010;28;20243;-80
2021/01/19 15:46:58;;;;;;;5.57;5.00;;;;;;;;;;5070566;28;20251;-77
2021/01/19 15:49:44;;;;;;;4.60;4.20;;;;;;;;;;5059419;28;20469;-78
2021/01/19 15:52:28;;;;;;;3.70;3.40;;;;;;;;;;5066304;28;20296;-76
2021/01/19 15:55:14;;;;;;;3.57;3.27;;;;;;;;;;5072211;28;20207;-81
2021/01/19 15:57:58;;;;;;;2.90;2.70;;;;;;;;;;5072449;28;20289;-80
2021/01/19 16:00:42;;;;;;;2.97;2.77;;;;;;;;;;5073275;28;20296;-83
2021/01/19 16:03:27;;;;;;;3.30;2.80;;;;;;;;;;5073167;28;20686;-82
2021/01/19 16:06:12;;;;;;;2.63;2.43;;;;;;;;;;5068013;28;20607;-72
2021/01/19 16:08:57;;;;;;;2.50;2.40;;;;;;;;;;5063295;28;20212;-74
2021/01/19 16:11:41;;;;;;;3.67;2.57;;;;;;;;;;5056739;28;20236;-77
2021/01/19 16:14:26;;;;;;;2.60;2.40;;;;;;;;;;5063674;28;20252;-75
2021/01/19 16:17:10;;;;;;;2.77;2.53;;;;;;;;;;5072561;28;20212;-77
2021/01/19 16:19:55;;;;;;;3.07;2.30;;;;;;;;;;5072408;28;20251;-75
2021/01/19 16:22:41;;;;;;;2.70;2.50;;;;;;;;;;5073074;28;20768;-73
2021/01/19 16:25:25;;;;;;;2.30;2.20;;;;;;;;;;5073122;28;20503;-74
2021/01/19 16:28:10;;;;;;;2.47;2.27;;;;;;;;;;5072359;28;20200;-75